sensor_id;sensor_type;location;lat;lon;timestamp;temperature;humidity
5868;DHT22;2960;49.142;7.768;2023-12-20T00:02:20;6.60;88.80
5868;DHT22;2960;49.142;7.768;2023-12-20T00:04:48;6.60;88.80
5868;DHT22;2960;49.142;7.768;2023-12-20T00:07:15;6.60;88.80
5868;DHT22;2960;49.142;7.768;2023-12-20T00:09:43;6.80;88.90
5868;DHT22;2960;49.142;7.768;2023-12-20T00:12:12;6.60;88.70
5868;DHT22;2960;49.142;7.768;2023-12-20T00:14:39;6.60;88.80
5868;DHT22;2960;49.142;7.768;2023-12-20T00:17:08;6.60;88.80
5868;DHT22;2960;49.142;7.768;2023-12-20T00:19:35;6.60;88.90
5868;DHT22;2960;49.142;7.768;2023-12-20T00:22:02;6.60;88.90
5868;DHT22;2960;49.142;7.768;2023-12-20T00:24:30;6.60;88.90
5868;DHT22;2960;49.142;7.768;2023-12-20T00:26:57;6.70;89.00
5868;DHT22;2960;49.142;7.768;2023-12-20T00:29:24;6.60;89.00
5868;DHT22;2960;49.142;7.768;2023-12-20T00:31:52;6.60;89.00
5868;DHT22;2960;49.142;7.768;2023-12-20T00:34:20;6.60;88.90
5868;DHT22;2960;49.142;7.768;2023-12-20T00:36:47;6.60;88.80
5868;DHT22;2960;49.142;7.768;2023-12-20T00:39:14;6.60;88.80
5868;DHT22;2960;49.142;7.768;2023-12-20T00:41:41;6.60;88.80
5868;DHT22;2960;49.142;7.768;2023-12-20T00:44:09;6.60;88.80
5868;DHT22;2960;49.142;7.768;2023-12-20T00:46:36;6.60;88.80
5868;DHT22;2960;49.142;7.768;2023-12-20T00:49:03;6.60;88.80
5868;DHT22;2960;49.142;7.768;2023-12-20T00:51:32;6.60;88.80
5868;DHT22;2960;49.142;7.768;2023-12-20T00:53:59;6.60;89.60
5868;DHT22;2960;49.142;7.768;2023-12-20T00:56:26;6.70;88.90
5868;DHT22;2960;49.142;7.768;2023-12-20T00:58:53;6.60;88.80
5868;DHT22;2960;49.142;7.768;2023-12-20T01:01:20;6.60;88.80
5868;DHT22;2960;49.142;7.768;2023-12-20T01:03:48;6.60;88.90
5868;DHT22;2960;49.142;7.768;2023-12-20T01:06:16;6.60;88.80
5868;DHT22;2960;49.142;7.768;2023-12-20T01:08:45;6.60;88.80
5868;DHT22;2960;49.142;7.768;2023-12-20T01:11:12;6.70;88.90
5868;DHT22;2960;49.142;7.768;2023-12-20T01:13:39;6.70;88.80
5868;DHT22;2960;49.142;7.768;2023-12-20T01:16:06;6.70;88.80
5868;DHT22;2960;49.142;7.768;2023-12-20T01:18:35;6.70;88.70
5868;DHT22;2960;49.142;7.768;2023-12-20T01:21:03;6.70;88.70
5868;DHT22;2960;49.142;7.768;2023-12-20T01:23:30;6.70;88.80
5868;DHT22;2960;49.142;7.768;2023-12-20T01:25:59;6.70;88.80
5868;DHT22;2960;49.142;7.768;2023-12-20T01:28:26;6.70;88.60
5868;DHT22;2960;49.142;7.768;2023-12-20T01:30:53;6.80;89.40
5868;DHT22;2960;49.142;7.768;2023-12-20T01:33:20;6.70;88.60
5868;DHT22;2960;49.142;7.768;2023-12-20T01:35:48;6.70;88.70
5868;DHT22;2960;49.142;7.768;2023-12-20T01:38:15;6.70;88.60
5868;DHT22;2960;49.142;7.768;2023-12-20T01:40:44;6.70;89.30
5868;DHT22;2960;49.142;7.768;2023-12-20T01:43:13;6.70;88.60
5868;DHT22;2960;49.142;7.768;2023-12-20T01:45:40;6.70;88.40
5868;DHT22;2960;49.142;7.768;2023-12-20T01:48:08;6.70;88.40
5868;DHT22;2960;49.142;7.768;2023-12-20T01:50:36;6.80;88.50
5868;DHT22;2960;49.142;7.768;2023-12-20T01:53:04;6.80;88.40
5868;DHT22;2960;49.142;7.768;2023-12-20T01:55:35;6.80;88.30
5868;DHT22;2960;49.142;7.768;2023-12-20T01:58:04;6.80;88.30
5868;DHT22;2960;49.142;7.768;2023-12-20T02:00:33;6.80;88.30
5868;DHT22;2960;49.142;7.768;2023-12-20T02:03:01;6.80;88.20
5868;DHT22;2960;49.142;7.768;2023-12-20T02:05:29;6.80;88.10
5868;DHT22;2960;49.142;7.768;2023-12-20T02:07:57;6.80;88.10
5868;DHT22;2960;49.142;7.768;2023-12-20T02:10:24;6.80;88.00
5868;DHT22;2960;49.142;7.768;2023-12-20T02:12:52;6.80;88.00
5868;DHT22;2960;49.142;7.768;2023-12-20T02:15:19;6.80;87.90
5868;DHT22;2960;49.142;7.768;2023-12-20T02:17:49;6.90;88.00
5868;DHT22;2960;49.142;7.768;2023-12-20T02:20:16;6.90;88.00
5868;DHT22;2960;49.142;7.768;2023-12-20T02:22:45;6.90;87.80
5868;DHT22;2960;49.142;7.768;2023-12-20T02:25:12;6.90;87.80
5868;DHT22;2960;49.142;7.768;2023-12-20T02:27:39;6.80;87.80
5868;DHT22;2960;49.142;7.768;2023-12-20T02:30:07;6.80;87.80
5868;DHT22;2960;49.142;7.768;2023-12-20T02:32:35;6.80;87.90
5868;DHT22;2960;49.142;7.768;2023-12-20T02:35:03;6.80;87.90
5868;DHT22;2960;49.142;7.768;2023-12-20T02:37:30;6.80;87.90
5868;DHT22;2960;49.142;7.768;2023-12-20T02:39:59;6.80;87.90
5868;DHT22;2960;49.142;7.768;2023-12-20T02:42:26;6.80;87.80
5868;DHT22;2960;49.142;7.768;2023-12-20T02:44:53;6.90;88.60
5868;DHT22;2960;49.142;7.768;2023-12-20T02:47:20;6.80;87.80
5868;DHT22;2960;49.142;7.768;2023-12-20T02:49:47;6.80;87.90
5868;DHT22;2960;49.142;7.768;2023-12-20T02:52:15;6.80;87.80
5868;DHT22;2960;49.142;7.768;2023-12-20T02:54:42;6.80;87.80
5868;DHT22;2960;49.142;7.768;2023-12-20T02:57:10;6.80;87.80
5868;DHT22;2960;49.142;7.768;2023-12-20T02:59:37;6.90;87.90
5868;DHT22;2960;49.142;7.768;2023-12-20T03:02:04;6.90;87.80
5868;DHT22;2960;49.142;7.768;2023-12-20T03:04:31;6.90;88.50
5868;DHT22;2960;49.142;7.768;2023-12-20T03:06:59;6.90;87.70
5868;DHT22;2960;49.142;7.768;2023-12-20T03:09:26;6.90;87.60
5868;DHT22;2960;49.142;7.768;2023-12-20T03:11:53;6.90;87.60
5868;DHT22;2960;49.142;7.768;2023-12-20T03:14:21;6.90;87.60
5868;DHT22;2960;49.142;7.768;2023-12-20T03:16:49;6.90;87.60
5868;DHT22;2960;49.142;7.768;2023-12-20T03:19:17;6.90;87.50
5868;DHT22;2960;49.142;7.768;2023-12-20T03:21:44;6.90;87.60
5868;DHT22;2960;49.142;7.768;2023-12-20T03:24:12;6.90;87.60
5868;DHT22;2960;49.142;7.768;2023-12-20T03:26:39;6.90;87.60
5868;DHT22;2960;49.142;7.768;2023-12-20T03:29:06;7.00;87.70
5868;DHT22;2960;49.142;7.768;2023-12-20T03:31:34;7.00;87.60
5868;DHT22;2960;49.142;7.768;2023-12-20T03:34:01;7.00;87.60
5868;DHT22;2960;49.142;7.768;2023-12-20T03:36:29;7.00;87.70
5868;DHT22;2960;49.142;7.768;2023-12-20T03:38:56;7.00;88.40
5868;DHT22;2960;49.142;7.768;2023-12-20T03:41:23;7.00;87.60
5868;DHT22;2960;49.142;7.768;2023-12-20T03:43:50;7.00;87.60
5868;DHT22;2960;49.142;7.768;2023-12-20T03:46:19;7.10;87.60
5868;DHT22;2960;49.142;7.768;2023-12-20T03:48:48;7.00;87.50
5868;DHT22;2960;49.142;7.768;2023-12-20T03:51:15;7.00;87.50
5868;DHT22;2960;49.142;7.768;2023-12-20T03:53:42;7.00;87.50
5868;DHT22;2960;49.142;7.768;2023-12-20T03:56:09;7.00;87.50
5868;DHT22;2960;49.142;7.768;2023-12-20T03:58:36;7.00;87.50
5868;DHT22;2960;49.142;7.768;2023-12-20T04:01:03;7.00;87.50
5868;DHT22;2960;49.142;7.768;2023-12-20T04:03:36;7.00;87.60
5868;DHT22;2960;49.142;7.768;2023-12-20T04:06:05;7.00;87.50
5868;DHT22;2960;49.142;7.768;2023-12-20T04:08:32;7.00;87.50
5868;DHT22;2960;49.142;7.768;2023-12-20T04:11:00;7.00;87.60
5868;DHT22;2960;49.142;7.768;2023-12-20T04:13:27;7.00;87.70
5868;DHT22;2960;49.142;7.768;2023-12-20T04:15:54;7.00;87.70
5868;DHT22;2960;49.142;7.768;2023-12-20T04:18:21;7.00;87.80
5868;DHT22;2960;49.142;7.768;2023-12-20T04:20:48;7.00;87.80
5868;DHT22;2960;49.142;7.768;2023-12-20T04:23:16;7.00;87.80
5868;DHT22;2960;49.142;7.768;2023-12-20T04:25:45;7.00;87.90
5868;DHT22;2960;49.142;7.768;2023-12-20T04:28:12;7.10;88.00
5868;DHT22;2960;49.142;7.768;2023-12-20T04:30:39;7.10;88.00
5868;DHT22;2960;49.142;7.768;2023-12-20T04:33:06;7.00;87.90
5868;DHT22;2960;49.142;7.768;2023-12-20T04:35:33;7.00;87.90
5868;DHT22;2960;49.142;7.768;2023-12-20T04:38:01;7.00;88.00
5868;DHT22;2960;49.142;7.768;2023-12-20T04:40:30;7.00;88.30
5868;DHT22;2960;49.142;7.768;2023-12-20T04:42:59;7.00;88.50
5868;DHT22;2960;49.142;7.768;2023-12-20T04:45:26;7.00;88.60
5868;DHT22;2960;49.142;7.768;2023-12-20T04:47:54;7.00;88.60
5868;DHT22;2960;49.142;7.768;2023-12-20T04:50:22;7.00;88.60
5868;DHT22;2960;49.142;7.768;2023-12-20T04:52:50;7.00;88.60
5868;DHT22;2960;49.142;7.768;2023-12-20T04:55:17;7.00;89.40
5868;DHT22;2960;49.142;7.768;2023-12-20T04:57:46;7.00;88.60
5868;DHT22;2960;49.142;7.768;2023-12-20T05:00:14;7.00;88.60
5868;DHT22;2960;49.142;7.768;2023-12-20T05:02:41;7.00;88.70
5868;DHT22;2960;49.142;7.768;2023-12-20T05:05:08;7.10;88.90
5868;DHT22;2960;49.142;7.768;2023-12-20T05:07:35;7.00;88.70
5868;DHT22;2960;49.142;7.768;2023-12-20T05:10:03;7.00;88.80
5868;DHT22;2960;49.142;7.768;2023-12-20T05:12:31;7.00;89.00
5868;DHT22;2960;49.142;7.768;2023-12-20T05:15:00;7.00;88.90
5868;DHT22;2960;49.142;7.768;2023-12-20T05:17:27;7.00;89.00
5868;DHT22;2960;49.142;7.768;2023-12-20T05:19:54;7.10;89.10
5868;DHT22;2960;49.142;7.768;2023-12-20T05:22:21;7.10;89.20
5868;DHT22;2960;49.142;7.768;2023-12-20T05:24:48;7.10;89.20
5868;DHT22;2960;49.142;7.768;2023-12-20T05:27:15;7.10;89.50
5868;DHT22;2960;49.142;7.768;2023-12-20T05:29:42;7.10;89.20
5868;DHT22;2960;49.142;7.768;2023-12-20T05:32:11;7.10;89.20
5868;DHT22;2960;49.142;7.768;2023-12-20T05:34:38;7.10;89.20
5868;DHT22;2960;49.142;7.768;2023-12-20T05:37:05;7.10;89.10
5868;DHT22;2960;49.142;7.768;2023-12-20T05:39:32;7.10;89.10
5868;DHT22;2960;49.142;7.768;2023-12-20T05:41:59;7.10;89.00
5868;DHT22;2960;49.142;7.768;2023-12-20T05:44:26;7.00;88.90
5868;DHT22;2960;49.142;7.768;2023-12-20T05:46:53;7.00;88.90
5868;DHT22;2960;49.142;7.768;2023-12-20T05:49:22;7.00;88.90
5868;DHT22;2960;49.142;7.768;2023-12-20T05:51:49;7.00;88.90
5868;DHT22;2960;49.142;7.768;2023-12-20T05:54:16;7.00;88.90
5868;DHT22;2960;49.142;7.768;2023-12-20T05:56:43;7.00;88.80
5868;DHT22;2960;49.142;7.768;2023-12-20T05:59:10;7.00;88.80
5868;DHT22;2960;49.142;7.768;2023-12-20T06:01:37;7.00;88.60
5868;DHT22;2960;49.142;7.768;2023-12-20T06:04:05;7.00;88.60
5868;DHT22;2960;49.142;7.768;2023-12-20T06:06:33;7.00;88.50
5868;DHT22;2960;49.142;7.768;2023-12-20T06:09:01;7.00;89.20
5868;DHT22;2960;49.142;7.768;2023-12-20T06:11:28;7.00;88.50
5868;DHT22;2960;49.142;7.768;2023-12-20T06:13:55;7.00;88.50
5868;DHT22;2960;49.142;7.768;2023-12-20T06:16:22;7.00;88.50
5868;DHT22;2960;49.142;7.768;2023-12-20T06:18:49;7.00;89.10
5868;DHT22;2960;49.142;7.768;2023-12-20T06:21:16;7.00;88.40
5868;DHT22;2960;49.142;7.768;2023-12-20T06:23:45;7.00;88.30
5868;DHT22;2960;49.142;7.768;2023-12-20T06:26:12;7.00;88.30
5868;DHT22;2960;49.142;7.768;2023-12-20T06:28:40;7.00;88.20
5868;DHT22;2960;49.142;7.768;2023-12-20T06:31:07;7.00;88.10
5868;DHT22;2960;49.142;7.768;2023-12-20T06:33:34;7.00;88.00
5868;DHT22;2960;49.142;7.768;2023-12-20T06:36:01;7.00;88.00
5868;DHT22;2960;49.142;7.768;2023-12-20T06:38:28;7.00;88.00
5868;DHT22;2960;49.142;7.768;2023-12-20T06:40:57;7.00;87.80
5868;DHT22;2960;49.142;7.768;2023-12-20T06:43:25;7.00;87.80
5868;DHT22;2960;49.142;7.768;2023-12-20T06:45:52;7.00;87.80
5868;DHT22;2960;49.142;7.768;2023-12-20T06:48:19;6.90;87.60
5868;DHT22;2960;49.142;7.768;2023-12-20T06:50:46;6.90;87.60
5868;DHT22;2960;49.142;7.768;2023-12-20T06:53:13;6.90;87.60
5868;DHT22;2960;49.142;7.768;2023-12-20T06:55:40;6.90;87.60
5868;DHT22;2960;49.142;7.768;2023-12-20T06:58:09;6.90;87.40
5868;DHT22;2960;49.142;7.768;2023-12-20T07:00:36;6.90;88.10
5868;DHT22;2960;49.142;7.768;2023-12-20T07:03:03;6.90;88.00
5868;DHT22;2960;49.142;7.768;2023-12-20T07:05:33;6.80;87.20
5868;DHT22;2960;49.142;7.768;2023-12-20T07:08:00;6.90;87.90
5868;DHT22;2960;49.142;7.768;2023-12-20T07:10:28;6.90;87.10
5868;DHT22;2960;49.142;7.768;2023-12-20T07:12:55;6.80;86.90
5868;DHT22;2960;49.142;7.768;2023-12-20T07:15:24;6.80;87.00
5868;DHT22;2960;49.142;7.768;2023-12-20T07:17:52;6.80;86.90
5868;DHT22;2960;49.142;7.768;2023-12-20T07:20:19;6.80;86.70
5868;DHT22;2960;49.142;7.768;2023-12-20T07:22:47;6.80;86.60
5868;DHT22;2960;49.142;7.768;2023-12-20T07:25:14;6.80;86.40
5868;DHT22;2960;49.142;7.768;2023-12-20T07:27:41;6.70;86.20
5868;DHT22;2960;49.142;7.768;2023-12-20T07:30:09;6.70;86.20
5868;DHT22;2960;49.142;7.768;2023-12-20T07:32:38;6.70;86.10
5868;DHT22;2960;49.142;7.768;2023-12-20T07:35:06;6.70;86.10
5868;DHT22;2960;49.142;7.768;2023-12-20T07:37:33;6.70;86.10
5868;DHT22;2960;49.142;7.768;2023-12-20T07:40:00;6.60;86.00
5868;DHT22;2960;49.142;7.768;2023-12-20T07:42:29;6.60;85.90
5868;DHT22;2960;49.142;7.768;2023-12-20T07:44:56;6.60;85.90
5868;DHT22;2960;49.142;7.768;2023-12-20T07:47:23;6.60;86.50
5868;DHT22;2960;49.142;7.768;2023-12-20T07:49:53;6.60;86.30
5868;DHT22;2960;49.142;7.768;2023-12-20T07:52:20;6.60;85.40
5868;DHT22;2960;49.142;7.768;2023-12-20T07:54:48;6.60;85.30
5868;DHT22;2960;49.142;7.768;2023-12-20T07:57:15;6.50;85.00
5868;DHT22;2960;49.142;7.768;2023-12-20T07:59:42;6.50;84.90
5868;DHT22;2960;49.142;7.768;2023-12-20T08:02:10;6.50;84.90
5868;DHT22;2960;49.142;7.768;2023-12-20T08:04:37;6.60;84.90
5868;DHT22;2960;49.142;7.768;2023-12-20T08:07:06;6.50;84.80
5868;DHT22;2960;49.142;7.768;2023-12-20T08:09:33;6.50;84.90
5868;DHT22;2960;49.142;7.768;2023-12-20T08:12:02;6.60;85.00
5868;DHT22;2960;49.142;7.768;2023-12-20T08:14:30;6.60;84.80
5868;DHT22;2960;49.142;7.768;2023-12-20T08:16:57;6.80;84.80
5868;DHT22;2960;49.142;7.768;2023-12-20T08:19:24;6.70;84.60
5868;DHT22;2960;49.142;7.768;2023-12-20T08:21:51;6.70;84.40
5868;DHT22;2960;49.142;7.768;2023-12-20T08:24:20;6.70;84.30
5868;DHT22;2960;49.142;7.768;2023-12-20T08:26:47;6.80;84.20
5868;DHT22;2960;49.142;7.768;2023-12-20T08:29:14;6.80;84.10
5868;DHT22;2960;49.142;7.768;2023-12-20T08:31:41;6.80;83.90
5868;DHT22;2960;49.142;7.768;2023-12-20T08:34:08;6.80;83.80
5868;DHT22;2960;49.142;7.768;2023-12-20T08:36:37;6.80;83.80
5868;DHT22;2960;49.142;7.768;2023-12-20T08:39:06;6.80;83.70
5868;DHT22;2960;49.142;7.768;2023-12-20T08:41:35;6.80;83.60
5868;DHT22;2960;49.142;7.768;2023-12-20T08:44:03;6.80;83.50
5868;DHT22;2960;49.142;7.768;2023-12-20T08:46:30;6.90;83.50
5868;DHT22;2960;49.142;7.768;2023-12-20T08:48:58;6.90;83.50
5868;DHT22;2960;49.142;7.768;2023-12-20T08:51:25;6.90;83.40
5868;DHT22;2960;49.142;7.768;2023-12-20T08:53:53;6.90;83.40
5868;DHT22;2960;49.142;7.768;2023-12-20T08:56:20;6.90;83.40
5868;DHT22;2960;49.142;7.768;2023-12-20T08:58:49;7.10;83.60
5868;DHT22;2960;49.142;7.768;2023-12-20T09:01:16;6.90;83.30
5868;DHT22;2960;49.142;7.768;2023-12-20T09:03:43;7.00;83.50
5868;DHT22;2960;49.142;7.768;2023-12-20T09:06:10;7.00;83.40
5868;DHT22;2960;49.142;7.768;2023-12-20T09:08:37;7.00;83.30
5868;DHT22;2960;49.142;7.768;2023-12-20T09:11:05;7.00;83.10
5868;DHT22;2960;49.142;7.768;2023-12-20T09:13:32;7.00;83.20
5868;DHT22;2960;49.142;7.768;2023-12-20T09:16:02;7.00;83.00
5868;DHT22;2960;49.142;7.768;2023-12-20T09:18:29;7.00;83.00
5868;DHT22;2960;49.142;7.768;2023-12-20T09:20:57;7.00;83.00
5868;DHT22;2960;49.142;7.768;2023-12-20T09:23:27;7.00;82.90
5868;DHT22;2960;49.142;7.768;2023-12-20T09:25:54;7.00;82.90
5868;DHT22;2960;49.142;7.768;2023-12-20T09:28:21;7.00;82.70
5868;DHT22;2960;49.142;7.768;2023-12-20T09:30:49;7.00;82.60
5868;DHT22;2960;49.142;7.768;2023-12-20T09:33:17;7.00;82.70
5868;DHT22;2960;49.142;7.768;2023-12-20T09:35:44;7.10;82.70
5868;DHT22;2960;49.142;7.768;2023-12-20T09:38:11;7.00;82.40
5868;DHT22;2960;49.142;7.768;2023-12-20T09:40:42;7.00;82.30
5868;DHT22;2960;49.142;7.768;2023-12-20T09:43:13;7.00;82.40
5868;DHT22;2960;49.142;7.768;2023-12-20T09:45:42;7.00;82.30
5868;DHT22;2960;49.142;7.768;2023-12-20T09:48:19;7.00;82.20
5868;DHT22;2960;49.142;7.768;2023-12-20T09:50:46;7.00;82.20
5868;DHT22;2960;49.142;7.768;2023-12-20T09:53:15;7.10;82.20
5868;DHT22;2960;49.142;7.768;2023-12-20T09:55:43;7.00;82.30
5868;DHT22;2960;49.142;7.768;2023-12-20T09:58:10;7.10;82.40
5868;DHT22;2960;49.142;7.768;2023-12-20T10:00:37;7.10;82.40
5868;DHT22;2960;49.142;7.768;2023-12-20T10:03:06;7.20;82.50
5868;DHT22;2960;49.142;7.768;2023-12-20T10:05:35;7.20;82.30
5868;DHT22;2960;49.142;7.768;2023-12-20T10:08:02;7.30;82.20
5868;DHT22;2960;49.142;7.768;2023-12-20T10:10:30;7.40;82.50
5868;DHT22;2960;49.142;7.768;2023-12-20T10:13:04;7.50;82.70
5868;DHT22;2960;49.142;7.768;2023-12-20T10:15:32;7.70;82.70
5868;DHT22;2960;49.142;7.768;2023-12-20T10:18:00;7.90;82.60
5868;DHT22;2960;49.142;7.768;2023-12-20T10:20:27;8.00;82.10
5868;DHT22;2960;49.142;7.768;2023-12-20T10:22:57;8.10;81.60
5868;DHT22;2960;49.142;7.768;2023-12-20T10:25:25;8.10;81.10
5868;DHT22;2960;49.142;7.768;2023-12-20T10:28:10;8.30;80.90
5868;DHT22;2960;49.142;7.768;2023-12-20T10:30:40;8.30;80.80
5868;DHT22;2960;49.142;7.768;2023-12-20T10:33:08;8.20;80.10
5868;DHT22;2960;49.142;7.768;2023-12-20T10:35:35;8.30;79.90
5868;DHT22;2960;49.142;7.768;2023-12-20T10:38:06;8.30;79.60
5868;DHT22;2960;49.142;7.768;2023-12-20T10:40:35;8.20;79.00
5868;DHT22;2960;49.142;7.768;2023-12-20T10:43:03;8.20;79.00
5868;DHT22;2960;49.142;7.768;2023-12-20T10:45:31;8.20;79.00
5868;DHT22;2960;49.142;7.768;2023-12-20T10:47:59;8.10;78.90
5868;DHT22;2960;49.142;7.768;2023-12-20T10:50:27;8.10;78.80
5868;DHT22;2960;49.142;7.768;2023-12-20T10:52:55;8.10;78.50
5868;DHT22;2960;49.142;7.768;2023-12-20T10:55:24;8.00;78.40
5868;DHT22;2960;49.142;7.768;2023-12-20T10:57:52;8.00;78.50
5868;DHT22;2960;49.142;7.768;2023-12-20T11:00:23;7.90;78.20
5868;DHT22;2960;49.142;7.768;2023-12-20T11:02:50;7.90;78.20
5868;DHT22;2960;49.142;7.768;2023-12-20T11:05:25;7.90;78.20
5868;DHT22;2960;49.142;7.768;2023-12-20T11:07:59;7.80;78.20
5868;DHT22;2960;49.142;7.768;2023-12-20T11:10:33;7.80;78.30
5868;DHT22;2960;49.142;7.768;2023-12-20T11:13:08;7.70;78.30
5868;DHT22;2960;49.142;7.768;2023-12-20T11:15:40;7.70;78.20
5868;DHT22;2960;49.142;7.768;2023-12-20T11:18:07;7.60;78.10
5868;DHT22;2960;49.142;7.768;2023-12-20T11:20:36;7.60;78.10
5868;DHT22;2960;49.142;7.768;2023-12-20T11:23:04;7.60;78.30
5868;DHT22;2960;49.142;7.768;2023-12-20T11:25:46;7.50;78.30
5868;DHT22;2960;49.142;7.768;2023-12-20T11:28:15;7.50;78.30
5868;DHT22;2960;49.142;7.768;2023-12-20T11:30:46;7.50;78.40
5868;DHT22;2960;49.142;7.768;2023-12-20T11:33:14;7.50;78.60
5868;DHT22;2960;49.142;7.768;2023-12-20T11:35:42;7.40;78.60
5868;DHT22;2960;49.142;7.768;2023-12-20T11:38:10;7.40;78.60
5868;DHT22;2960;49.142;7.768;2023-12-20T11:40:38;7.50;78.80
5868;DHT22;2960;49.142;7.768;2023-12-20T11:43:05;7.50;78.90
5868;DHT22;2960;49.142;7.768;2023-12-20T11:45:33;7.50;78.60
5868;DHT22;2960;49.142;7.768;2023-12-20T11:48:01;7.50;78.40
5868;DHT22;2960;49.142;7.768;2023-12-20T11:50:29;7.50;78.30
5868;DHT22;2960;49.142;7.768;2023-12-20T11:52:57;7.50;78.30
5868;DHT22;2960;49.142;7.768;2023-12-20T11:55:24;7.50;78.30
5868;DHT22;2960;49.142;7.768;2023-12-20T11:57:53;7.50;78.40
5868;DHT22;2960;49.142;7.768;2023-12-20T12:00:20;7.50;78.40
5868;DHT22;2960;49.142;7.768;2023-12-20T12:02:57;7.50;78.30
5868;DHT22;2960;49.142;7.768;2023-12-20T12:05:25;7.50;78.20
5868;DHT22;2960;49.142;7.768;2023-12-20T12:07:53;7.60;78.10
5868;DHT22;2960;49.142;7.768;2023-12-20T12:10:20;7.60;78.00
5868;DHT22;2960;49.142;7.768;2023-12-20T12:12:47;7.60;78.00
5868;DHT22;2960;49.142;7.768;2023-12-20T12:15:16;7.60;78.00
5868;DHT22;2960;49.142;7.768;2023-12-20T12:17:43;7.60;77.80
5868;DHT22;2960;49.142;7.768;2023-12-20T12:20:10;7.60;77.60
5868;DHT22;2960;49.142;7.768;2023-12-20T12:22:38;7.60;77.50
5868;DHT22;2960;49.142;7.768;2023-12-20T12:25:12;7.60;77.50
5868;DHT22;2960;49.142;7.768;2023-12-20T12:27:40;7.60;77.50
5868;DHT22;2960;49.142;7.768;2023-12-20T12:30:09;7.50;77.20
5868;DHT22;2960;49.142;7.768;2023-12-20T12:32:40;7.60;77.30
5868;DHT22;2960;49.142;7.768;2023-12-20T12:35:08;7.70;77.50
5868;DHT22;2960;49.142;7.768;2023-12-20T12:37:38;7.60;77.30
5868;DHT22;2960;49.142;7.768;2023-12-20T12:40:07;7.60;77.30
5868;DHT22;2960;49.142;7.768;2023-12-20T12:42:36;7.50;77.10
5868;DHT22;2960;49.142;7.768;2023-12-20T12:45:05;7.50;77.20
5868;DHT22;2960;49.142;7.768;2023-12-20T12:47:33;7.50;77.20
5868;DHT22;2960;49.142;7.768;2023-12-20T12:50:02;7.50;77.20
5868;DHT22;2960;49.142;7.768;2023-12-20T12:52:30;7.50;77.20
5868;DHT22;2960;49.142;7.768;2023-12-20T12:54:58;7.50;77.30
5868;DHT22;2960;49.142;7.768;2023-12-20T12:57:25;7.50;77.20
5868;DHT22;2960;49.142;7.768;2023-12-20T12:59:52;7.60;77.20
5868;DHT22;2960;49.142;7.768;2023-12-20T13:02:19;7.60;77.00
5868;DHT22;2960;49.142;7.768;2023-12-20T13:04:46;7.50;76.90
5868;DHT22;2960;49.142;7.768;2023-12-20T13:07:15;7.50;76.90
5868;DHT22;2960;49.142;7.768;2023-12-20T13:09:42;7.60;77.10
5868;DHT22;2960;49.142;7.768;2023-12-20T13:12:09;7.60;77.10
5868;DHT22;2960;49.142;7.768;2023-12-20T13:14:36;7.60;77.00
5868;DHT22;2960;49.142;7.768;2023-12-20T13:17:04;7.60;76.80
5868;DHT22;2960;49.142;7.768;2023-12-20T13:19:31;7.60;76.70
5868;DHT22;2960;49.142;7.768;2023-12-20T13:21:59;7.60;76.70
5868;DHT22;2960;49.142;7.768;2023-12-20T13:24:27;7.50;76.60
5868;DHT22;2960;49.142;7.768;2023-12-20T13:26:55;7.50;76.60
5868;DHT22;2960;49.142;7.768;2023-12-20T13:29:22;7.50;76.50
5868;DHT22;2960;49.142;7.768;2023-12-20T13:31:53;7.50;76.50
5868;DHT22;2960;49.142;7.768;2023-12-20T13:34:20;7.50;76.60
5868;DHT22;2960;49.142;7.768;2023-12-20T13:36:47;7.50;76.40
5868;DHT22;2960;49.142;7.768;2023-12-20T13:39:16;7.50;76.50
5868;DHT22;2960;49.142;7.768;2023-12-20T13:41:44;7.50;76.40
5868;DHT22;2960;49.142;7.768;2023-12-20T13:44:12;7.50;76.40
5868;DHT22;2960;49.142;7.768;2023-12-20T13:46:39;7.50;76.30
5868;DHT22;2960;49.142;7.768;2023-12-20T13:49:06;7.50;76.40
5868;DHT22;2960;49.142;7.768;2023-12-20T13:51:34;7.50;76.40
5868;DHT22;2960;49.142;7.768;2023-12-20T13:54:01;7.50;76.30
5868;DHT22;2960;49.142;7.768;2023-12-20T13:56:28;7.50;76.30
5868;DHT22;2960;49.142;7.768;2023-12-20T13:58:57;7.50;76.40
5868;DHT22;2960;49.142;7.768;2023-12-20T14:01:25;7.50;76.30
5868;DHT22;2960;49.142;7.768;2023-12-20T14:03:52;7.50;76.30
5868;DHT22;2960;49.142;7.768;2023-12-20T14:06:19;7.50;76.30
5868;DHT22;2960;49.142;7.768;2023-12-20T14:08:46;7.60;76.50
5868;DHT22;2960;49.142;7.768;2023-12-20T14:11:14;7.60;76.50
5868;DHT22;2960;49.142;7.768;2023-12-20T14:13:41;7.60;76.50
5868;DHT22;2960;49.142;7.768;2023-12-20T14:16:10;7.60;76.60
5868;DHT22;2960;49.142;7.768;2023-12-20T14:18:38;7.60;76.50
5868;DHT22;2960;49.142;7.768;2023-12-20T14:21:05;7.60;76.60
5868;DHT22;2960;49.142;7.768;2023-12-20T14:23:33;7.60;76.60
5868;DHT22;2960;49.142;7.768;2023-12-20T14:26:00;7.70;76.70
5868;DHT22;2960;49.142;7.768;2023-12-20T14:28:27;7.70;76.70
5868;DHT22;2960;49.142;7.768;2023-12-20T14:30:55;7.70;76.70
5868;DHT22;2960;49.142;7.768;2023-12-20T14:33:24;7.70;76.60
5868;DHT22;2960;49.142;7.768;2023-12-20T14:35:52;7.70;76.60
5868;DHT22;2960;49.142;7.768;2023-12-20T14:38:19;7.70;76.60
5868;DHT22;2960;49.142;7.768;2023-12-20T14:40:46;7.60;76.50
5868;DHT22;2960;49.142;7.768;2023-12-20T14:43:13;7.60;76.60
5868;DHT22;2960;49.142;7.768;2023-12-20T14:45:42;7.60;76.50
5868;DHT22;2960;49.142;7.768;2023-12-20T14:48:09;7.60;76.60
5868;DHT22;2960;49.142;7.768;2023-12-20T14:50:37;7.60;76.60
5868;DHT22;2960;49.142;7.768;2023-12-20T14:53:06;7.60;76.60
5868;DHT22;2960;49.142;7.768;2023-12-20T14:55:33;7.50;76.50
5868;DHT22;2960;49.142;7.768;2023-12-20T14:58:00;7.50;76.50
5868;DHT22;2960;49.142;7.768;2023-12-20T15:00:28;7.50;76.60
5868;DHT22;2960;49.142;7.768;2023-12-20T15:02:55;7.50;76.60
5868;DHT22;2960;49.142;7.768;2023-12-20T15:05:22;7.50;76.60
5868;DHT22;2960;49.142;7.768;2023-12-20T15:07:51;7.50;76.70
5868;DHT22;2960;49.142;7.768;2023-12-20T15:10:18;7.50;77.40
5868;DHT22;2960;49.142;7.768;2023-12-20T15:12:45;7.50;76.60
5868;DHT22;2960;49.142;7.768;2023-12-20T15:15:13;7.50;76.60
5868;DHT22;2960;49.142;7.768;2023-12-20T15:17:40;7.50;76.60
5868;DHT22;2960;49.142;7.768;2023-12-20T15:20:09;7.50;76.60
5868;DHT22;2960;49.142;7.768;2023-12-20T15:22:36;7.50;76.70
5868;DHT22;2960;49.142;7.768;2023-12-20T15:25:07;7.50;76.70
5868;DHT22;2960;49.142;7.768;2023-12-20T15:27:35;7.50;76.70
5868;DHT22;2960;49.142;7.768;2023-12-20T15:30:04;7.50;76.60
5868;DHT22;2960;49.142;7.768;2023-12-20T15:32:34;7.50;76.70
5868;DHT22;2960;49.142;7.768;2023-12-20T15:35:03;7.40;76.70
5868;DHT22;2960;49.142;7.768;2023-12-20T15:37:31;7.40;76.70
5868;DHT22;2960;49.142;7.768;2023-12-20T15:39:58;7.40;76.70
5868;DHT22;2960;49.142;7.768;2023-12-20T15:42:27;7.40;76.70
5868;DHT22;2960;49.142;7.768;2023-12-20T15:44:56;7.40;76.70
5868;DHT22;2960;49.142;7.768;2023-12-20T15:47:25;7.40;76.80
5868;DHT22;2960;49.142;7.768;2023-12-20T15:49:53;7.40;76.90
5868;DHT22;2960;49.142;7.768;2023-12-20T15:52:20;7.40;76.90
5868;DHT22;2960;49.142;7.768;2023-12-20T15:54:47;7.40;76.90
5868;DHT22;2960;49.142;7.768;2023-12-20T15:57:15;7.40;76.90
5868;DHT22;2960;49.142;7.768;2023-12-20T15:59:43;7.30;76.90
5868;DHT22;2960;49.142;7.768;2023-12-20T16:02:10;7.30;76.90
5868;DHT22;2960;49.142;7.768;2023-12-20T16:04:37;7.30;77.00
5868;DHT22;2960;49.142;7.768;2023-12-20T16:07:04;7.30;77.00
5868;DHT22;2960;49.142;7.768;2023-12-20T16:09:31;7.30;77.10
5868;DHT22;2960;49.142;7.768;2023-12-20T16:11:58;7.30;77.20
5868;DHT22;2960;49.142;7.768;2023-12-20T16:14:26;7.40;77.20
5868;DHT22;2960;49.142;7.768;2023-12-20T16:16:56;7.40;77.30
5868;DHT22;2960;49.142;7.768;2023-12-20T16:19:22;7.40;77.20
5868;DHT22;2960;49.142;7.768;2023-12-20T16:21:50;7.40;77.30